createdAt,value
2022-08-18T00:04:48.600Z,21.44
2022-08-18T00:09:54.479Z,21.34
2022-08-18T00:14:46.931Z,21.21
2022-08-18T00:19:48.359Z,21.11
2022-08-18T00:24:47.860Z,21.04
2022-08-18T00:29:46.690Z,20.98
2022-08-18T00:34:46.633Z,20.92
2022-08-18T00:39:48.092Z,20.86
2022-08-18T00:44:46.477Z,20.81
2022-08-18T00:49:46.427Z,20.78
2022-08-18T00:54:46.433Z,20.75
2022-08-18T00:59:46.316Z,20.71
2022-08-18T01:04:46.249Z,20.64
2022-08-18T01:09:46.184Z,20.57
2022-08-18T01:14:46.077Z,20.50
2022-08-18T01:19:46.034Z,20.42
2022-08-18T01:24:46.015Z,20.35
2022-08-18T01:29:45.896Z,20.29
2022-08-18T01:34:45.807Z,20.23
2022-08-18T01:41:06.299Z,20.18
2022-08-18T01:44:46.691Z,20.15
2022-08-18T01:49:45.678Z,20.12
2022-08-18T01:54:45.555Z,20.07
2022-08-18T01:59:45.488Z,20.03
2022-08-18T02:04:45.416Z,20.00
2022-08-18T02:09:45.411Z,19.99
2022-08-18T02:14:45.309Z,19.97
2022-08-18T02:19:45.235Z,19.95
2022-08-18T02:24:45.156Z,19.91
2022-08-18T02:29:45.141Z,19.87
2022-08-18T02:34:45.031Z,19.82
2022-08-18T02:39:45.009Z,19.76
2022-08-18T02:44:44.899Z,19.70
2022-08-18T02:49:44.846Z,19.62
2022-08-18T02:54:44.756Z,19.53
2022-08-18T02:59:46.887Z,19.44
2022-08-18T03:04:44.722Z,19.37
2022-08-18T03:09:44.590Z,19.33
2022-08-18T03:14:44.498Z,19.30
2022-08-18T03:19:44.439Z,19.28
2022-08-18T03:24:44.383Z,19.26
2022-08-18T03:29:44.312Z,19.23
2022-08-18T03:34:44.247Z,19.21
2022-08-18T03:39:44.276Z,19.17
2022-08-18T03:44:44.094Z,19.14
2022-08-18T03:49:44.079Z,19.09
2022-08-18T03:54:43.974Z,19.06
2022-08-18T03:59:43.943Z,19.06
2022-08-18T04:04:43.846Z,19.09
2022-08-18T04:09:43.781Z,19.14
2022-08-18T04:14:43.718Z,19.19
2022-08-18T04:19:58.257Z,19.21
2022-08-18T04:24:50.812Z,19.18
2022-08-18T04:29:50.609Z,19.15
2022-08-18T04:34:50.543Z,19.15
2022-08-18T04:39:50.550Z,19.16
2022-08-18T04:44:50.451Z,19.19
2022-08-18T04:49:50.464Z,19.22
2022-08-18T04:54:50.307Z,19.25
2022-08-18T04:59:50.195Z,19.28
2022-08-18T05:04:50.185Z,19.31
2022-08-18T05:09:50.078Z,19.34
2022-08-18T05:14:50.009Z,19.36
2022-08-18T05:19:49.962Z,19.39
2022-08-18T05:24:49.898Z,19.43
2022-08-18T05:29:51.542Z,19.48
2022-08-18T05:34:49.742Z,19.54
2022-08-18T05:39:50.425Z,19.60
2022-08-18T05:44:49.637Z,19.67
2022-08-18T05:49:49.522Z,19.72
2022-08-18T05:54:49.506Z,19.77
2022-08-18T05:59:49.430Z,19.81
2022-08-18T06:04:49.373Z,19.87
2022-08-18T06:09:49.258Z,19.92
2022-08-18T06:14:49.190Z,19.97
2022-08-18T06:19:49.136Z,20.02
2022-08-18T06:24:49.068Z,20.08
2022-08-18T06:29:49.371Z,20.14
2022-08-18T06:34:48.972Z,20.19
2022-08-18T06:39:48.933Z,20.24
2022-08-18T06:44:48.798Z,20.30
2022-08-18T06:49:48.791Z,20.39
2022-08-18T06:54:51.465Z,20.51
2022-08-18T06:59:48.602Z,20.68
2022-08-18T07:04:48.563Z,20.93
2022-08-18T07:09:48.528Z,21.19
2022-08-18T07:14:48.399Z,21.42
2022-08-18T07:19:48.348Z,21.58
2022-08-18T07:24:48.270Z,21.65
2022-08-18T07:29:48.261Z,21.67
2022-08-18T07:34:48.128Z,21.65
2022-08-18T07:39:49.161Z,21.63
2022-08-18T07:44:48.018Z,21.62
2022-08-18T07:50:16.509Z,21.63
2022-08-18T07:54:50.357Z,21.66
2022-08-18T07:59:47.818Z,21.72
2022-08-18T08:04:47.780Z,21.82
2022-08-18T08:09:51.799Z,21.95
2022-08-18T08:14:47.633Z,22.10
2022-08-18T08:20:02.861Z,22.24
2022-08-18T08:24:48.489Z,22.35
2022-08-18T08:29:47.476Z,22.45
2022-08-18T08:34:47.373Z,22.52
2022-08-18T08:39:47.420Z,22.57
2022-08-18T08:44:58.912Z,22.65
2022-08-18T08:49:54.771Z,22.82
2022-08-18T08:54:48.075Z,23.04
2022-08-18T08:59:47.053Z,23.29
2022-08-18T09:04:55.743Z,23.52
2022-08-18T09:09:47.948Z,23.66
2022-08-18T09:14:46.838Z,23.66
2022-08-18T09:19:47.119Z,23.58
2022-08-18T09:24:46.696Z,23.55
2022-08-18T09:29:46.642Z,23.70
2022-08-18T09:34:46.704Z,24.00
2022-08-18T09:39:51.677Z,24.46
2022-08-18T09:44:47.429Z,24.95
2022-08-18T09:49:47.843Z,25.41
2022-08-18T09:54:47.308Z,25.94
2022-08-18T09:59:46.238Z,26.43
2022-08-18T10:04:46.937Z,26.75
2022-08-18T10:09:46.112Z,26.94
2022-08-18T10:14:46.060Z,27.16
2022-08-18T10:19:46.016Z,27.36
2022-08-18T10:24:45.929Z,27.41
2022-08-18T10:29:45.869Z,27.29
2022-08-18T10:34:51.792Z,27.15
2022-08-18T10:39:46.781Z,27.36
2022-08-18T10:44:45.659Z,27.76
2022-08-18T10:49:46.928Z,27.88
2022-08-18T10:54:51.063Z,27.80
2022-08-18T10:59:50.518Z,27.83
2022-08-18T11:04:46.379Z,28.16
2022-08-18T11:09:50.816Z,29.31
2022-08-18T11:14:46.261Z,30.53
2022-08-18T11:19:45.200Z,31.26
2022-08-18T11:24:45.111Z,31.53
2022-08-18T11:29:45.064Z,31.80
2022-08-18T11:34:45.723Z,32.16
2022-08-18T11:39:45.977Z,32.48
2022-08-18T11:44:44.849Z,32.71
2022-08-18T11:49:44.794Z,32.30
2022-08-18T11:54:50.799Z,31.41
2022-08-18T11:59:54.672Z,30.42
2022-08-18T12:04:45.597Z,29.41
2022-08-18T12:10:18.039Z,28.65
2022-08-18T12:14:45.482Z,28.36
2022-08-18T12:19:44.417Z,28.44
2022-08-18T12:24:44.394Z,28.68
2022-08-18T12:29:45.122Z,29.05
2022-08-18T12:34:44.207Z,29.35
2022-08-18T12:39:44.322Z,29.40
2022-08-18T12:44:44.100Z,29.38
2022-08-18T12:49:43.992Z,29.42
2022-08-18T12:54:55.507Z,29.55
2022-08-18T12:59:44.964Z,29.72
2022-08-18T13:04:43.856Z,29.96
2022-08-18T13:09:52.541Z,30.19
2022-08-18T13:14:44.838Z,30.43
2022-08-18T13:19:43.676Z,30.82
2022-08-18T13:24:43.554Z,31.36
2022-08-18T13:29:43.533Z,31.70
2022-08-18T13:34:43.437Z,31.84
2022-08-18T13:39:43.912Z,31.68
2022-08-18T13:44:43.341Z,31.40
2022-08-18T13:49:58.984Z,31.14
2022-08-18T13:54:44.216Z,30.91
2022-08-18T13:59:46.790Z,30.77
2022-08-18T14:04:43.050Z,30.73
2022-08-18T14:09:43.024Z,30.74
2022-08-18T14:14:43.022Z,30.81
2022-08-18T14:19:42.840Z,30.95
2022-08-18T14:24:42.776Z,31.06
2022-08-18T14:29:47.280Z,31.28
2022-08-18T14:34:50.647Z,31.44
2022-08-18T14:39:50.195Z,31.39
2022-08-18T14:44:43.555Z,31.20
2022-08-18T14:49:42.983Z,30.87
2022-08-18T14:54:46.378Z,30.54
2022-08-18T14:59:43.303Z,30.30
2022-08-18T15:04:55.915Z,30.17
2022-08-18T15:09:43.229Z,30.11
2022-08-18T15:14:42.099Z,30.01
2022-08-18T15:19:59.661Z,29.80
2022-08-18T15:24:42.984Z,29.54
2022-08-18T15:29:41.910Z,29.36
2022-08-18T15:34:46.447Z,29.18
2022-08-18T15:39:42.870Z,28.94
2022-08-18T15:44:41.807Z,28.74
2022-08-18T15:49:41.653Z,28.58
2022-08-18T15:54:42.367Z,28.50
2022-08-18T15:59:41.541Z,28.51
2022-08-18T16:04:44.991Z,28.53
2022-08-18T16:09:41.368Z,28.54
2022-08-18T16:14:41.348Z,28.47
2022-08-18T16:19:41.344Z,28.34
2022-08-18T16:24:41.220Z,28.17
2022-08-18T16:29:41.210Z,27.96
2022-08-18T16:34:41.096Z,27.75
2022-08-18T16:39:41.055Z,27.55
2022-08-18T16:44:40.935Z,27.38
2022-08-18T16:49:40.982Z,27.23
2022-08-18T16:54:40.803Z,27.11
2022-08-18T16:59:40.744Z,27.01
2022-08-18T17:04:40.757Z,26.91
2022-08-18T17:09:40.621Z,26.80
2022-08-18T17:14:40.646Z,26.69
2022-08-18T17:19:40.475Z,26.58
2022-08-18T17:24:49.527Z,26.44
2022-08-18T17:29:41.372Z,26.28
2022-08-18T17:34:40.285Z,26.12
2022-08-18T17:39:40.292Z,25.96
2022-08-18T17:44:46.368Z,25.82
2022-08-18T17:49:41.290Z,25.68
2022-08-18T17:54:40.102Z,25.54
2022-08-18T17:59:45.746Z,25.40
2022-08-18T18:04:40.906Z,25.25
2022-08-18T18:09:39.829Z,25.10
2022-08-18T18:14:39.863Z,24.94
2022-08-18T18:19:39.751Z,24.78
2022-08-18T18:24:39.687Z,24.63
2022-08-18T18:29:39.594Z,24.50
2022-08-18T18:34:39.664Z,24.37
2022-08-18T18:39:39.526Z,24.23
2022-08-18T18:44:39.371Z,24.09
2022-08-18T18:49:39.330Z,23.95
2022-08-18T18:54:39.245Z,23.81
2022-08-18T18:59:39.214Z,23.67
2022-08-18T19:04:39.118Z,23.54
2022-08-18T19:09:39.051Z,23.40
2022-08-18T19:14:39.028Z,23.27
2022-08-18T19:19:39.449Z,23.15
2022-08-18T19:24:38.992Z,23.03
2022-08-18T19:29:38.790Z,22.91
2022-08-18T19:34:51.085Z,22.81
2022-08-18T19:39:39.707Z,22.73
2022-08-18T19:44:38.591Z,22.67
2022-08-18T19:49:38.538Z,22.61
2022-08-18T19:54:38.444Z,22.56
2022-08-18T19:59:38.426Z,22.49
2022-08-18T20:04:38.338Z,22.42
2022-08-18T20:09:38.277Z,22.35
2022-08-18T20:14:38.405Z,22.29
2022-08-18T20:19:38.134Z,22.23
2022-08-18T20:24:38.462Z,22.18
2022-08-18T20:29:38.000Z,22.12
2022-08-18T20:34:37.940Z,22.05
2022-08-18T20:39:38.042Z,21.97
2022-08-18T20:44:37.803Z,21.90
2022-08-18T20:49:37.748Z,21.84
2022-08-18T20:54:37.755Z,21.77
2022-08-18T20:59:37.615Z,21.72
2022-08-18T21:04:42.486Z,21.66
2022-08-18T21:09:38.771Z,21.61
2022-08-18T21:14:37.384Z,21.56
2022-08-18T21:19:37.347Z,21.50
2022-08-18T21:24:37.278Z,21.43
2022-08-18T21:29:49.235Z,21.36
2022-08-18T21:34:41.728Z,21.28
2022-08-18T21:39:38.363Z,21.20
2022-08-18T21:44:37.052Z,21.13
2022-08-18T21:49:36.982Z,21.06
2022-08-18T21:54:37.423Z,21.00
2022-08-18T21:59:36.921Z,20.95
2022-08-18T22:04:36.763Z,20.90
2022-08-18T22:09:36.671Z,20.86
2022-08-18T22:14:55.242Z,20.83
2022-08-18T22:19:37.534Z,20.79
2022-08-18T22:24:36.446Z,20.73
2022-08-18T22:29:36.430Z,20.66
2022-08-18T22:34:37.359Z,20.60
2022-08-18T22:39:36.328Z,20.57
2022-08-18T22:44:36.222Z,20.56
2022-08-18T22:49:36.159Z,20.55
2022-08-18T22:54:36.083Z,20.53
2022-08-18T22:59:36.014Z,20.50
2022-08-18T23:04:36.955Z,20.45
2022-08-18T23:09:35.914Z,20.42
2022-08-18T23:14:35.832Z,20.39
2022-08-18T23:19:35.734Z,20.38
2022-08-18T23:24:35.726Z,20.37
2022-08-18T23:29:35.620Z,20.37
2022-08-18T23:34:35.654Z,20.37
2022-08-18T23:39:35.535Z,20.35
2022-08-18T23:44:35.409Z,20.29
2022-08-18T23:49:36.035Z,20.21
2022-08-18T23:54:35.308Z,20.13
2022-08-18T23:59:35.210Z,20.06
